createdAt,value
2023-04-01T00:02:22.884Z,10.43
2023-04-01T00:12:26.019Z,10.38
2023-04-01T00:22:27.869Z,10.35
2023-04-01T00:32:29.879Z,10.38
2023-04-01T00:42:31.484Z,10.38
2023-04-01T00:52:33.892Z,10.30
2023-04-01T01:02:35.908Z,10.31
2023-04-01T01:12:59.043Z,10.37
2023-04-01T01:23:28.135Z,10.21
2023-04-01T01:33:53.234Z,10.31
2023-04-01T01:43:57.661Z,10.20
2023-04-01T01:53:59.158Z,10.32
2023-04-01T02:04:01.267Z,10.18
2023-04-01T02:14:09.743Z,10.15
2023-04-01T02:24:16.162Z,10.22
2023-04-01T02:34:17.883Z,10.19
2023-04-01T02:44:19.279Z,10.22
2023-04-01T02:54:20.780Z,10.17
2023-04-01T03:04:22.163Z,10.12
2023-04-01T03:14:23.641Z,10.12
2023-04-01T03:24:25.064Z,10.11
2023-04-01T03:34:27.116Z,10.19
2023-04-01T03:44:32.540Z,10.16
2023-04-01T03:54:34.138Z,10.17
2023-04-01T04:04:35.577Z,10.18
2023-04-01T04:14:37.168Z,10.16
2023-04-01T04:24:38.740Z,10.21
2023-04-01T04:34:40.168Z,10.18
2023-04-01T04:44:41.512Z,10.20
2023-04-01T04:54:42.893Z,10.17
2023-04-01T05:04:44.463Z,10.16
2023-04-01T05:14:45.854Z,10.19
2023-04-01T05:24:47.205Z,10.15
2023-04-01T05:34:52.116Z,10.10
2023-04-01T05:44:53.820Z,10.12
2023-04-01T05:54:55.166Z,10.12
2023-04-01T06:05:21.207Z,10.11
2023-04-01T06:15:37.604Z,10.10
2023-04-01T06:26:00.277Z,10.05
2023-04-01T06:36:27.240Z,10.11
2023-04-01T06:46:43.687Z,10.13
2023-04-01T06:56:50.829Z,10.13
2023-04-01T07:06:56.762Z,10.07
2023-04-01T07:17:21.766Z,10.14
2023-04-01T07:27:24.144Z,10.13
2023-04-01T07:37:43.538Z,10.20
2023-04-01T07:48:06.211Z,10.20
2023-04-01T07:58:16.405Z,10.24
2023-04-01T08:08:34.097Z,10.24
2023-04-01T08:18:47.951Z,10.25
2023-04-01T08:29:04.712Z,10.28
2023-04-01T08:39:15.885Z,10.32
2023-04-01T08:49:17.187Z,10.38
2023-04-01T08:59:24.624Z,10.40
2023-04-01T09:09:36.049Z,10.53
2023-04-01T09:20:15.299Z,10.58
2023-04-01T09:30:22.539Z,10.67
2023-04-01T09:40:38.636Z,10.71
2023-04-01T09:50:50.979Z,10.77
2023-04-01T10:01:16.463Z,10.81
2023-04-01T10:11:57.492Z,10.87
2023-04-01T10:22:16.834Z,10.94
2023-04-01T10:32:30.662Z,10.97
2023-04-01T10:42:56.318Z,10.99
2023-04-01T10:53:35.495Z,11.06
2023-04-01T11:04:01.874Z,11.11
2023-04-01T11:14:24.845Z,11.10
2023-04-01T11:24:29.170Z,11.11
2023-04-01T11:34:39.710Z,11.15
2023-04-01T11:45:08.645Z,11.10
2023-04-01T11:55:33.757Z,11.13
2023-04-01T12:05:54.893Z,11.21
2023-04-01T12:16:23.595Z,11.32
2023-04-01T12:26:49.072Z,11.41
2023-04-01T12:37:12.378Z,11.45
2023-04-01T12:47:20.098Z,11.49
2023-04-01T12:58:00.812Z,11.49
2023-04-01T13:08:25.850Z,11.47
2023-04-01T13:18:27.272Z,11.48
2023-04-01T13:28:56.647Z,11.45
2023-04-01T13:39:31.535Z,11.40
2023-04-01T13:49:46.335Z,11.31
2023-04-01T14:00:06.060Z,11.31
2023-04-01T14:10:35.941Z,11.32
2023-04-01T14:20:41.757Z,11.40
2023-04-01T14:30:59.752Z,11.44
2023-04-01T14:41:21.694Z,11.48
2023-04-01T14:51:29.136Z,11.49
2023-04-01T15:01:43.996Z,11.51
2023-04-01T15:11:51.483Z,11.52
2023-04-01T15:22:08.323Z,11.55
2023-04-01T15:32:17.423Z,11.56
2023-04-01T15:42:37.383Z,11.55
2023-04-01T15:53:07.005Z,11.58
2023-04-01T16:03:46.165Z,11.55
2023-04-01T16:13:52.808Z,11.46
2023-04-01T16:24:05.520Z,11.44
2023-04-01T16:34:18.253Z,11.39
2023-04-01T16:44:23.913Z,11.30
2023-04-01T16:54:36.604Z,11.28
2023-04-01T17:05:01.227Z,11.30
2023-04-01T17:15:05.845Z,11.26
2023-04-01T17:25:29.044Z,11.21
2023-04-01T17:35:53.793Z,11.15
2023-04-01T17:45:58.774Z,11.15
2023-04-01T17:56:09.538Z,11.13
2023-04-01T18:06:25.889Z,10.85
2023-04-01T18:16:37.822Z,10.96
2023-04-01T18:26:43.013Z,10.99
2023-04-01T18:36:56.514Z,11.01
2023-04-01T18:47:19.754Z,10.99
2023-04-01T18:57:22.113Z,10.85
2023-04-01T19:07:42.826Z,10.60
2023-04-01T19:18:09.077Z,10.39
2023-04-01T19:28:40.395Z,10.39
2023-04-01T19:38:52.553Z,10.15
2023-04-01T19:49:05.950Z,9.91
2023-04-01T19:59:29.038Z,9.91
2023-04-01T20:09:42.627Z,9.77
2023-04-01T20:20:04.378Z,9.76
2023-04-01T20:30:38.484Z,9.82
2023-04-01T20:40:50.735Z,9.71
2023-04-01T20:50:58.632Z,9.61
2023-04-01T21:01:15.154Z,9.42
2023-04-01T21:11:27.148Z,9.47
2023-04-01T21:21:59.586Z,9.00
2023-04-01T21:32:01.193Z,9.12
2023-04-01T21:42:15.381Z,8.68
2023-04-01T21:52:44.409Z,8.50
2023-04-01T22:03:08.183Z,8.67
2023-04-01T22:13:22.470Z,8.70
2023-04-01T22:24:01.365Z,8.03
2023-04-01T22:34:28.270Z,8.37
2023-04-01T22:44:43.734Z,8.30
2023-04-01T22:54:53.938Z,8.20
2023-04-01T23:04:58.999Z,8.21
2023-04-01T23:15:03.664Z,8.07
2023-04-01T23:25:25.757Z,7.98
2023-04-01T23:35:27.119Z,8.02
2023-04-01T23:45:28.805Z,7.67
2023-04-01T23:55:35.664Z,7.12
